Time;durP1;ratioP1;P1;durP2;ratioP2;P2;SDS_P1;SDS_P2;PMS_P1;PMS_P2;Temp;Humidity;BMP_temperature;BMP_pressure;BME280_temperature;BME280_humidity;BME280_pressure;Samples;Min_cycle;Max_cycle;Signal;HPM_P1;HPM_P2
2021/07/17 00:02:01;;;;;;;19.25;15.32;;;;;;;18.30;nan;101099.66;5008476;28;20556;-74
2021/07/17 00:04:27;;;;;;;18.90;14.57;;;;;;;18.30;nan;101102.34;5008988;28;20128;-75
2021/07/17 00:06:53;;;;;;;20.13;15.00;;;;;;;18.24;nan;101093.22;5010001;28;20080;-74
2021/07/17 00:09:18;;;;;;;19.67;14.45;;;;;;;18.26;nan;101090.38;5009941;28;20030;-75
2021/07/17 00:11:44;;;;;;;23.70;14.93;;;;;;;18.22;nan;101089.91;4993057;28;20155;-75
2021/07/17 00:14:10;;;;;;;20.08;14.75;;;;;;;18.19;nan;101086.78;4992433;28;20038;-75
2021/07/17 00:16:35;;;;;;;23.58;15.82;;;;;;;18.24;nan;101089.72;5008363;28;20042;-75
2021/07/17 00:19:00;;;;;;;15.03;12.57;;;;;;;18.22;nan;101087.22;5008538;28;20656;-74
2021/07/17 00:21:25;;;;;;;15.37;13.10;;;;;;;18.22;nan;101094.44;5007451;28;20910;-74
2021/07/17 00:23:52;;;;;;;19.58;14.77;;;;;;;18.21;nan;101090.94;5009899;28;20034;-75
2021/07/17 00:26:17;;;;;;;17.83;13.50;;;;;;;18.24;nan;101103.09;5009156;28;20026;-75
2021/07/17 00:28:42;;;;;;;19.70;14.38;;;;;;;18.25;nan;101099.41;5011151;28;20036;-74
2021/07/17 00:31:08;;;;;;;19.10;14.38;;;;;;;18.20;nan;101096.47;5011266;28;20030;-75
2021/07/17 00:33:33;;;;;;;19.27;14.98;;;;;;;18.18;nan;101087.78;5010051;28;20517;-74
2021/07/17 00:35:59;;;;;;;21.85;15.25;;;;;;;18.11;nan;101085.03;4991899;28;20406;-74
2021/07/17 00:38:24;;;;;;;20.70;14.30;;;;;;;18.08;nan;101090.75;5007675;28;20521;-74
2021/07/17 00:40:49;;;;;;;22.08;15.55;;;;;;;18.08;nan;101089.94;5012678;28;20072;-74
2021/07/17 00:43:15;;;;;;;20.02;15.20;;;;;;;18.07;nan;101085.59;5016440;28;20494;-74
2021/07/17 00:45:40;;;;;;;23.83;15.32;;;;;;;18.09;nan;101086.22;5008959;28;20038;-75
2021/07/17 00:48:06;;;;;;;21.17;15.20;;;;;;;18.09;nan;101089.75;5001978;28;20030;-74
2021/07/17 00:50:31;;;;;;;15.90;13.77;;;;;;;18.15;nan;101088.16;5012328;28;20750;-76
2021/07/17 00:52:56;;;;;;;;;;;;;;;18.20;nan;101088.44;5012244;28;20053;-75
2021/07/17 00:55:25;;;;;;;19.30;14.77;;;;;;;18.19;nan;101081.44;4995018;28;20304;-75
2021/07/17 00:57:52;;;;;;;17.58;13.23;;;;;;;18.19;nan;101079.56;5013296;28;20060;-74
2021/07/17 01:00:18;;;;;;;23.58;15.63;;;;;;;18.18;nan;101082.44;5012543;28;20045;-75
2021/07/17 01:02:48;;;;;;;17.25;13.70;;;;;;;18.14;nan;101078.47;5013192;28;20037;-75
2021/07/17 01:05:14;;;;;;;22.77;14.43;;;;;;;18.20;nan;101072.38;5013144;28;20564;-75
2021/07/17 01:07:40;;;;;;;21.55;14.77;;;;;;;18.15;nan;101077.47;5013289;28;20499;-75
2021/07/17 01:10:07;;;;;;;19.17;13.77;;;;;;;18.16;nan;101079.09;5012720;28;20117;-74
2021/07/17 01:12:33;;;;;;;18.98;14.82;;;;;;;18.23;nan;101088.91;5012498;28;20033;-74
2021/07/17 01:14:59;;;;;;;21.48;14.77;;;;;;;18.25;nan;101088.69;5011942;28;20088;-74
2021/07/17 01:17:25;;;;;;;;;;;;;;;18.27;nan;101081.31;5013038;28;20054;-75
2021/07/17 01:19:50;;;;;;;19.53;13.47;;;;;;;18.25;nan;101078.81;5012866;28;19944;-74
2021/07/17 01:22:16;;;;;;;15.63;12.60;;;;;;;18.25;nan;101088.69;5011892;28;20034;-75
2021/07/17 01:24:45;;;;;;;15.13;12.05;;;;;;;18.25;nan;101081.47;4995117;28;20498;-74
2021/07/17 01:27:18;;;;;;;16.50;12.68;;;;;;;18.31;nan;101089.81;5012612;28;20038;-75
2021/07/17 01:29:45;;;;;;;18.10;12.65;;;;;;;18.30;nan;101088.13;5013291;28;20030;-75
2021/07/17 01:32:11;;;;;;;15.73;12.40;;;;;;;18.31;nan;101087.94;5013144;28;20025;-75
2021/07/17 01:34:37;;;;;;;19.10;13.75;;;;;;;18.29;nan;101084.63;5012515;28;20056;-75
2021/07/17 01:37:03;;;;;;;19.83;14.32;;;;;;;18.33;nan;101090.41;5012857;28;20080;-75
2021/07/17 01:39:28;;;;;;;20.52;14.43;;;;;;;18.24;nan;101079.00;5012675;28;20037;-74
2021/07/17 01:41:53;;;;;;;22.85;14.75;;;;;;;18.23;nan;101075.50;5011750;28;20125;-74
2021/07/17 01:44:19;;;;;;;16.48;12.70;;;;;;;18.23;nan;101070.16;4993990;28;20041;-74
2021/07/17 01:46:45;;;;;;;21.67;14.65;;;;;;;18.21;nan;101077.53;5012067;28;20034;-75
2021/07/17 01:49:11;;;;;;;21.45;14.13;;;;;;;18.20;nan;101072.38;5012214;28;20034;-74
2021/07/17 01:51:37;;;;;;;21.52;14.95;;;;;;;18.15;nan;101077.47;5011633;28;20117;-74
2021/07/17 01:54:02;;;;;;;20.65;14.90;;;;;;;18.14;nan;101081.13;5011937;28;20041;-74
2021/07/17 01:56:28;;;;;;;19.77;13.95;;;;;;;18.16;nan;101076.44;5010460;28;20057;-74
2021/07/17 01:58:54;;;;;;;21.70;14.32;;;;;;;18.16;nan;101079.97;5011957;28;20026;-74
2021/07/17 02:01:20;;;;;;;19.75;14.43;;;;;;;18.17;nan;101078.09;5012034;28;20064;-74
2021/07/17 02:03:47;;;;;;;21.60;14.85;;;;;;;18.10;nan;101069.19;5010736;28;20065;-74
2021/07/17 02:06:14;;;;;;;21.75;15.35;;;;;;;18.11;nan;101068.97;5011580;28;20026;-74
2021/07/17 02:08:41;;;;;;;19.83;14.48;;;;;;;18.07;nan;101066.84;4993805;28;20395;-74
2021/07/17 02:11:07;;;;;;;19.25;14.55;;;;;;;18.06;nan;101065.19;5011597;28;20470;-74
2021/07/17 02:13:32;;;;;;;21.15;14.77;;;;;;;18.04;nan;101066.22;5012048;28;20037;-74
2021/07/17 02:15:58;;;;;;;20.50;14.20;;;;;;;18.07;nan;101064.19;5011925;28;20273;-74
2021/07/17 02:18:32;;;;;;;21.63;15.45;;;;;;;18.06;nan;101063.34;5010793;28;20029;-75
2021/07/17 02:21:00;;;;;;;19.83;14.55;;;;;;;18.04;nan;101071.59;5011721;28;20029;-75
2021/07/17 02:23:26;;;;;;;21.85;15.50;;;;;;;18.07;nan;101061.50;5011742;28;20037;-73
2021/07/17 02:25:51;;;;;;;19.10;14.48;;;;;;;18.01;nan;101061.25;5009974;28;20552;-74
2021/07/17 02:28:17;;;;;;;20.77;14.68;;;;;;;18.03;nan;101061.06;5008003;28;20038;-74
2021/07/17 02:30:42;;;;;;;17.48;12.75;;;;;;;18.07;nan;101059.69;5008101;28;20395;-74
2021/07/17 02:33:07;;;;;;;18.90;14.48;;;;;;;18.07;nan;101058.81;5008531;28;20075;-73
2021/07/17 02:35:33;;;;;;;20.83;14.98;;;;;;;18.12;nan;101054.59;4990401;28;20491;-75
2021/07/17 02:37:58;;;;;;;21.48;15.13;;;;;;;18.10;nan;101053.13;5008999;28;20517;-75
2021/07/17 02:40:24;;;;;;;20.35;13.75;;;;;;;18.09;nan;101056.78;5007031;28;20060;-74
2021/07/17 02:42:49;;;;;;;19.27;13.77;;;;;;;18.11;nan;101052.09;5009738;28;20052;-74
2021/07/17 02:45:15;;;;;;;22.27;15.85;;;;;;;18.12;nan;101056.44;5009028;28;20037;-74
2021/07/17 02:47:40;;;;;;;19.73;13.68;;;;;;;18.10;nan;101061.16;5010726;28;20033;-75
2021/07/17 02:50:06;;;;;;;20.08;15.43;;;;;;;18.11;nan;101068.16;4992903;28;20061;-75
2021/07/17 02:52:32;;;;;;;18.30;13.93;;;;;;;18.14;nan;101065.09;5009313;28;20104;-75
2021/07/17 02:54:57;;;;;;;20.15;14.27;;;;;;;18.15;nan;101062.22;5010085;28;20042;-75
2021/07/17 02:57:22;;;;;;;17.52;12.63;;;;;;;18.18;nan;101064.53;5010677;28;20433;-75
2021/07/17 02:59:48;;;;;;;17.38;12.27;;;;;;;18.17;nan;101070.91;5010617;28;20034;-75
2021/07/17 03:02:13;;;;;;;19.65;13.93;;;;;;;18.18;nan;101069.88;5009047;28;20034;-75
2021/07/17 03:04:38;;;;;;;17.25;13.02;;;;;;;18.16;nan;101069.25;5009889;28;20041;-74
2021/07/17 03:07:04;;;;;;;18.92;13.18;;;;;;;18.18;nan;101077.06;5008887;28;20041;-75
2021/07/17 03:09:29;;;;;;;19.73;13.95;;;;;;;18.20;nan;101075.03;5009683;28;20089;-75
2021/07/17 03:11:54;;;;;;;16.58;12.85;;;;;;;18.20;nan;101075.88;5008767;28;20029;-74
2021/07/17 03:14:20;;;;;;;17.15;13.15;;;;;;;18.20;nan;101070.50;5009894;28;20041;-75
2021/07/17 03:16:45;;;;;;;19.63;13.95;;;;;;;18.17;nan;101070.91;5010435;28;20514;-75
2021/07/17 03:19:10;;;;;;;19.15;13.90;;;;;;;18.20;nan;101069.69;5010022;28;20049;-75
2021/07/17 03:21:36;;;;;;;17.48;13.07;;;;;;;18.15;nan;101070.25;5010078;28;20060;-75
2021/07/17 03:24:01;;;;;;;23.45;15.27;;;;;;;18.17;nan;101073.56;5009197;28;20066;-75
2021/07/17 03:26:26;;;;;;;24.15;15.55;;;;;;;18.19;nan;101076.06;5009740;28;20030;-76
2021/07/17 03:28:52;;;;;;;18.80;12.65;;;;;;;18.18;nan;101082.44;5008626;28;20034;-75
2021/07/17 03:31:25;;;;;;;18.05;12.82;;;;;;;18.19;nan;101087.59;5009942;28;20040;-75
2021/07/17 03:33:50;;;;;;;17.40;13.27;;;;;;;18.21;nan;101084.72;5010007;28;20073;-75
2021/07/17 03:36:16;;;;;;;17.85;13.20;;;;;;;18.19;nan;101079.56;5009427;28;20034;-75
2021/07/17 03:38:41;;;;;;;21.58;14.32;;;;;;;18.22;nan;101065.81;5012442;23;20073;-85
2021/07/17 03:41:06;;;;;;;22.48;14.38;;;;;;;18.15;nan;101067.59;4992165;28;20049;-85
2021/07/17 03:43:31;;;;;;;19.95;14.10;;;;;;;18.14;nan;101065.09;4995988;28;20037;-84
2021/07/17 03:45:57;;;;;;;19.08;14.38;;;;;;;18.14;nan;101067.75;4992850;28;20519;-84
2021/07/17 03:48:22;;;;;;;21.02;14.77;;;;;;;18.15;nan;101061.41;4975612;28;20479;-85
2021/07/17 03:50:47;;;;;;;20.08;14.48;;;;;;;18.12;nan;101057.25;4960494;28;20065;-84
2021/07/17 03:53:13;;;;;;;21.15;15.27;;;;;;;18.11;nan;101068.97;4987314;28;20041;-85
2021/07/17 03:55:38;;;;;;;27.50;16.85;;;;;;;18.11;nan;101060.94;4973637;28;20412;-85
2021/07/17 03:58:03;;;;;;;23.58;15.98;;;;;;;18.11;nan;101058.25;4956625;28;20037;-84
2021/07/17 04:00:28;;;;;;;22.58;15.18;;;;;;;18.09;nan;101052.28;4988271;28;20045;-84
2021/07/17 04:02:54;;;;;;;22.98;14.93;;;;;;;18.08;nan;101053.28;4983620;28;20046;-85
2021/07/17 04:05:19;;;;;;;21.50;16.92;;;;;;;18.07;nan;101058.81;4961108;28;20098;-85
2021/07/17 04:07:46;;;;;;;23.67;15.63;;;;;;;18.09;nan;101064.81;4974601;28;20118;-85
2021/07/17 04:10:12;;;;;;;21.58;15.30;;;;;;;18.13;nan;101060.75;4961490;28;20572;-85
2021/07/17 04:12:38;;;;;;;21.98;15.00;;;;;;;18.16;nan;101063.91;4971009;28;20035;-84
2021/07/17 04:15:05;;;;;;;18.25;13.23;;;;;;;18.13;nan;101061.59;4984651;28;20085;-85
2021/07/17 04:17:31;;;;;;;20.63;14.88;;;;;;;18.15;nan;101072.94;4954997;28;20065;-85
2021/07/17 04:19:56;;;;;;;18.38;13.60;;;;;;;18.15;nan;101072.09;4984540;28;20121;-85
2021/07/17 04:22:22;;;;;;;22.35;16.20;;;;;;;18.15;nan;101074.78;4971418;28;20411;-85
2021/07/17 04:24:47;;;;;;;19.13;15.20;;;;;;;18.21;nan;101079.38;4975605;28;20507;-84
2021/07/17 04:27:13;;;;;;;18.90;14.18;;;;;;;18.18;nan;101077.91;4993111;28;20027;-84
2021/07/17 04:29:38;;;;;;;20.50;14.73;;;;;;;18.24;nan;101066.44;4977173;28;20501;-85
2021/07/17 04:32:04;;;;;;;19.45;14.05;;;;;;;18.27;nan;101080.47;4962345;28;20058;-84
2021/07/17 04:34:29;;;;;;;18.50;14.10;;;;;;;18.27;nan;101081.31;4971897;28;20027;-85
2021/07/17 04:36:55;;;;;;;18.60;14.05;;;;;;;18.28;nan;101076.78;4987036;28;20093;-85
2021/07/17 04:39:20;;;;;;;17.40;13.10;;;;;;;18.27;nan;101083.97;4984000;28;20035;-85
2021/07/17 04:41:46;;;;;;;15.63;11.15;;;;;;;18.30;nan;101082.78;4955268;28;20035;-84
2021/07/17 04:44:11;;;;;;;23.25;15.10;;;;;;;18.33;nan;101087.75;4969757;28;20044;-85
2021/07/17 04:46:36;;;;;;;20.05;13.95;;;;;;;18.28;nan;101088.31;4965860;28;20058;-85
2021/07/17 04:49:02;;;;;;;16.17;12.07;;;;;;;18.28;nan;101088.31;4991343;28;20034;-85
2021/07/17 04:51:28;;;;;;;16.30;13.23;;;;;;;18.33;nan;101095.78;4965888;28;20034;-84
2021/07/17 04:53:53;;;;;;;17.08;12.43;;;;;;;18.34;nan;101086.75;4981675;28;20030;-84
2021/07/17 04:56:19;;;;;;;20.52;14.07;;;;;;;18.32;nan;101092.28;4973732;28;20035;-85
2021/07/17 04:58:44;;;;;;;19.10;13.48;;;;;;;18.34;nan;101095.59;4964418;28;20041;-84
2021/07/17 05:01:09;;;;;;;16.48;12.48;;;;;;;18.31;nan;101098.66;4974855;28;20030;-84
2021/07/17 05:03:38;;;;;;;17.88;12.60;;;;;;;18.33;nan;101107.34;4976063;28;20050;-84
2021/07/17 05:06:04;;;;;;;16.05;11.40;;;;;;;18.42;nan;101089.28;4966229;28;20069;-84
2021/07/17 05:08:29;;;;;;;19.63;12.88;;;;;;;18.51;nan;101092.69;4975432;28;20437;-84
2021/07/17 05:10:55;;;;;;;15.48;11.82;;;;;;;18.55;nan;101089.44;4987035;28;20194;-84
2021/07/17 05:13:20;;;;;;;19.45;12.88;;;;;;;18.57;nan;101091.94;4973203;28;20395;-84
2021/07/17 05:15:45;;;;;;;15.88;11.88;;;;;;;18.64;nan;101090.97;4965951;28;20400;-85
2021/07/17 05:18:11;;;;;;;17.67;12.32;;;;;;;18.72;nan;101100.72;4989751;28;20427;-84
2021/07/17 05:20:41;;;;;;;18.98;12.07;;;;;;;18.75;nan;101094.97;4965407;28;20085;-84
2021/07/17 05:23:07;;;;;;;17.83;12.50;;;;;;;18.77;nan;101098.34;4982416;28;20042;-84
2021/07/17 05:25:33;;;;;;;20.60;13.98;;;;;;;18.80;nan;101100.63;4972329;28;20049;-84
2021/07/17 05:27:58;;;;;;;18.63;12.73;;;;;;;18.78;nan;101097.34;4991526;28;20030;-84
2021/07/17 05:30:24;;;;;;;15.50;11.60;;;;;;;18.84;nan;101104.59;4968558;28;20122;-84
2021/07/17 05:32:49;;;;;;;16.52;12.02;;;;;;;18.85;nan;101102.72;4963872;28;20133;-84
2021/07/17 05:35:15;;;;;;;17.42;12.90;;;;;;;18.88;nan;101103.19;4964939;28;20035;-85
2021/07/17 05:37:40;;;;;;;14.40;11.40;;;;;;;19.00;nan;101102.69;4983657;28;20038;-84
2021/07/17 05:40:06;;;;;;;;;;;;;;;19.04;nan;101098.56;4974119;28;20503;-85
2021/07/17 05:42:31;;;;;;;17.58;11.93;;;;;;;19.14;nan;101092.88;4967010;28;19918;-84
2021/07/17 05:44:56;;;;;;;17.08;11.45;;;;;;;19.24;nan;101094.19;4963789;28;20415;-84
2021/07/17 05:47:22;;;;;;;15.55;10.45;;;;;;;19.30;nan;101088.03;4961555;28;20248;-85
2021/07/17 05:49:47;;;;;;;14.82;10.85;;;;;;;19.40;nan;101090.41;4976879;28;20039;-85
2021/07/17 05:52:12;;;;;;;15.30;9.95;;;;;;;19.41;nan;101093.91;4969267;28;20037;-84
2021/07/17 05:54:38;;;;;;;14.52;10.85;;;;;;;19.40;nan;101103.81;4992114;28;20030;-85
2021/07/17 05:57:04;;;;;;;15.15;10.82;;;;;;;19.47;nan;101099.31;4969103;28;20113;-85
2021/07/17 05:59:29;;;;;;;15.82;11.32;;;;;;;19.46;nan;101088.78;4992457;28;20627;-85
2021/07/17 06:01:55;;;;;;;14.57;10.80;;;;;;;19.53;nan;101097.69;4966042;28;20489;-84
2021/07/17 06:04:20;;;;;;;15.75;11.07;;;;;;;19.53;nan;101086.97;4984602;28;20049;-85
2021/07/17 06:06:45;;;;;;;13.18;9.18;;;;;;;19.51;nan;101091.69;4970400;28;20034;-84
2021/07/17 06:09:10;;;;;;;13.93;9.13;;;;;;;19.56;nan;101091.94;4995656;28;20034;-84
2021/07/17 06:11:36;;;;;;;15.68;10.90;;;;;;;19.53;nan;101093.16;4967601;28;20038;-85
2021/07/17 06:14:01;;;;;;;16.83;11.38;;;;;;;19.56;nan;101091.09;4961849;28;20031;-84
2021/07/17 06:16:27;;;;;;;15.70;11.52;;;;;;;19.51;nan;101089.84;4956948;28;20034;-85
2021/07/17 06:18:52;;;;;;;16.23;11.73;;;;;;;19.54;nan;101093.97;4957229;28;20382;-85
2021/07/17 06:21:17;;;;;;;17.70;11.15;;;;;;;19.55;nan;101095.66;4974593;28;20085;-85
2021/07/17 06:23:43;;;;;;;15.10;10.70;;;;;;;19.57;nan;101093.59;4989561;28;20527;-84
2021/07/17 06:26:08;;;;;;;13.55;10.70;;;;;;;19.59;nan;101098.75;4973139;28;20038;-84
2021/07/17 06:28:34;;;;;;;12.88;9.68;;;;;;;19.69;nan;101099.28;4957952;28;20035;-84
2021/07/17 06:30:59;;;;;;;14.55;10.10;;;;;;;19.85;nan;101100.78;4972916;28;20038;-84
2021/07/17 06:33:24;;;;;;;10.73;8.35;;;;;;;19.94;nan;101100.41;4990419;28;20125;-85
2021/07/17 06:35:49;;;;;;;12.95;9.13;;;;;;;20.13;nan;101109.59;4965039;28;20558;-86
2021/07/17 06:38:15;;;;;;;10.73;8.73;;;;;;;20.21;nan;101107.75;4971371;28;20070;-85
2021/07/17 06:40:40;;;;;;;13.60;9.73;;;;;;;20.38;nan;101109.06;4963327;28;20098;-85
2021/07/17 06:43:05;;;;;;;15.05;10.18;;;;;;;20.41;nan;101118.59;4981459;28;20453;-85
2021/07/17 06:45:31;;;;;;;11.10;9.18;;;;;;;20.46;nan;101125.00;4984622;28;20034;-85
2021/07/17 06:47:57;;;;;;;11.65;9.07;;;;;;;20.71;nan;101119.94;4989564;28;20034;-85
2021/07/17 06:50:22;;;;;;;12.35;8.40;;;;;;;20.87;nan;101112.50;4959197;28;20042;-85
2021/07/17 06:52:48;;;;;;;13.45;9.10;;;;;;;20.88;nan;101124.88;4959824;28;20081;-85
2021/07/17 06:55:14;;;;;;;12.10;8.70;;;;;;;20.77;nan;101127.16;4975553;28;20054;-85
2021/07/17 06:57:41;;;;;;;11.95;8.85;;;;;;;20.83;nan;101122.81;4974333;28;20053;-84
2021/07/17 07:00:12;;;;;;;12.95;9.10;;;;;;;20.47;nan;101128.50;4981892;28;20163;-84
2021/07/17 07:02:38;;;;;;;11.38;8.93;;;;;;;20.40;nan;101130.34;4963895;28;20046;-85
2021/07/17 07:05:06;;;;;;;11.60;8.80;;;;;;;20.40;nan;101128.47;4963527;28;20491;-85
2021/07/17 07:07:31;;;;;;;10.45;8.50;;;;;;;20.53;nan;101130.38;4985123;28;20584;-84
2021/07/17 07:09:57;;;;;;;13.15;9.85;;;;;;;20.56;nan;101144.25;4963437;28;20038;-85
2021/07/17 07:12:22;;;;;;;11.55;8.00;;;;;;;20.49;nan;101137.19;4956091;28;20071;-85
2021/07/17 07:14:47;;;;;;;11.82;7.82;;;;;;;20.46;nan;101141.13;4967183;28;20043;-85
2021/07/17 07:17:13;;;;;;;12.30;9.32;;;;;;;20.25;nan;101142.06;4978416;28;20087;-85
2021/07/17 07:19:38;;;;;;;14.27;9.00;;;;;;;20.18;nan;101145.75;4993647;28;20034;-85
2021/07/17 07:22:04;;;;;;;11.65;7.95;;;;;;;20.04;nan;101143.00;5008300;28;20026;-85
2021/07/17 07:24:30;;;;;;;10.95;8.25;;;;;;;20.12;nan;101144.72;4981894;28;20480;-85
2021/07/17 07:26:56;;;;;;;12.82;9.05;;;;;;;19.96;nan;101148.53;4999079;28;20080;-85
2021/07/17 07:29:23;;;;;;;12.82;8.95;;;;;;;19.93;nan;101136.34;4982876;28;20488;-85
2021/07/17 07:31:49;;;;;;;12.55;8.80;;;;;;;19.88;nan;101144.19;4975194;28;20542;-85
2021/07/17 07:34:14;;;;;;;9.63;7.75;;;;;;;19.97;nan;101147.50;4990587;28;20030;-85
2021/07/17 07:36:39;;;;;;;12.05;8.20;;;;;;;19.91;nan;101145.63;4967120;28;20046;-84
2021/07/17 07:39:05;;;;;;;10.57;8.02;;;;;;;20.00;nan;101149.81;4975496;28;20031;-84
2021/07/17 07:41:30;;;;;;;11.90;8.77;;;;;;;20.00;nan;101144.44;4972767;28;20030;-84
2021/07/17 07:43:55;;;;;;;13.50;8.85;;;;;;;20.08;nan;101146.94;4993480;28;20030;-84
2021/07/17 07:46:21;;;;;;;11.75;7.57;;;;;;;20.17;nan;101144.13;4963071;28;20035;-84
2021/07/17 07:48:46;;;;;;;11.23;7.60;;;;;;;20.14;nan;101142.63;4967616;28;20084;-85
2021/07/17 07:51:12;;;;;;;13.85;8.68;;;;;;;20.11;nan;101143.03;4968483;28;20461;-86
2021/07/17 07:53:38;;;;;;;10.30;7.95;;;;;;;20.13;nan;101140.97;4962117;28;20034;-85
2021/07/17 07:56:03;;;;;;;12.05;7.97;;;;;;;20.12;nan;101140.16;4962022;28;20041;-85
2021/07/17 07:58:30;;;;;;;13.25;8.40;;;;;;;20.19;nan;101150.94;4979153;28;20053;-85
2021/07/17 08:00:56;;;;;;;10.57;7.50;;;;;;;20.05;nan;101144.66;4967779;28;20019;-85
2021/07/17 08:03:21;;;;;;;12.45;8.23;;;;;;;20.06;nan;101142.81;4967486;28;20114;-84
2021/07/17 08:05:46;;;;;;;10.18;7.80;;;;;;;20.12;nan;101147.41;4967215;28;20129;-85
2021/07/17 08:08:12;;;;;;;12.32;8.32;;;;;;;20.08;nan;101144.25;4968049;28;20055;-85
2021/07/17 08:10:38;;;;;;;14.40;8.27;;;;;;;20.04;nan;101147.53;4955394;28;20085;-85
2021/07/17 08:13:03;;;;;;;10.13;7.55;;;;;;;20.10;nan;101147.59;4959281;28;20031;-85
2021/07/17 08:15:29;;;;;;;9.45;7.18;;;;;;;20.18;nan;101149.25;4965064;28;20039;-85
2021/07/17 08:17:54;;;;;;;12.18;7.80;;;;;;;20.05;nan;101142.00;4973116;28;20222;-85
2021/07/17 08:20:19;;;;;;;11.52;7.85;;;;;;;20.17;nan;101141.44;4974334;28;20081;-85
2021/07/17 08:22:45;;;;;;;10.05;7.20;;;;;;;20.32;nan;101140.22;4960536;28;20115;-85
2021/07/17 08:25:11;;;;;;;11.93;7.50;;;;;;;20.43;nan;101149.59;4976114;28;20056;-85
2021/07/17 08:27:36;;;;;;;14.73;8.52;;;;;;;20.51;nan;101149.38;4985116;28;20030;-85
2021/07/17 08:30:03;;;;;;;10.50;7.30;;;;;;;20.44;nan;101153.91;4962068;28;20039;-85
2021/07/17 08:32:28;;;;;;;10.23;7.43;;;;;;;20.45;nan;101157.41;4966403;28;20118;-84
2021/07/17 08:34:54;;;;;;;10.15;6.95;;;;;;;20.51;nan;101149.38;4973138;28;20114;-85
2021/07/17 08:37:20;;;;;;;11.68;8.05;;;;;;;20.55;nan;101152.50;4966793;28;20027;-84
2021/07/17 08:39:45;;;;;;;11.40;7.65;;;;;;;20.44;nan;101159.28;4967278;28;20604;-84
2021/07/17 08:42:18;;;;;;;11.15;7.55;;;;;;;20.38;nan;101157.41;4971865;28;20034;-85
2021/07/17 08:44:48;;;;;;;11.50;7.68;;;;;;;20.41;nan;101151.63;4962657;28;20065;-85
2021/07/17 08:47:16;;;;;;;10.80;7.73;;;;;;;20.45;nan;101155.59;4976886;28;20058;-86
2021/07/17 08:49:43;;;;;;;12.10;7.63;;;;;;;20.51;nan;101157.44;4980517;28;20043;-85
2021/07/17 08:52:09;;;;;;;12.43;7.93;;;;;;;20.40;nan;101149.16;4966759;28;20099;-85
2021/07/17 08:54:37;;;;;;;12.77;7.60;;;;;;;20.48;nan;101147.13;4992842;28;20034;-85
2021/07/17 08:57:03;;;;;;;9.25;6.40;;;;;;;20.63;nan;101154.22;4980421;28;20073;-85
2021/07/17 08:59:28;;;;;;;9.75;7.20;;;;;;;20.77;nan;101147.84;4984422;28;20035;-86
2021/07/17 09:01:54;;;;;;;9.60;7.15;;;;;;;20.84;nan;101147.84;4981058;28;20065;-85
2021/07/17 09:04:26;;;;;;;10.45;7.00;;;;;;;20.91;nan;101149.50;4986565;28;20046;-86
2021/07/17 09:06:51;;;;;;;10.35;6.10;;;;;;;20.97;nan;101146.03;4992871;28;20026;-86
2021/07/17 09:09:34;;;;;;;12.18;7.05;;;;;;;21.22;nan;101148.09;4990779;28;20076;-86
2021/07/17 09:11:59;;;;;;;7.68;6.18;;;;;;;21.29;nan;101143.53;4975303;28;20073;-86
2021/07/17 09:14:39;;;;;;;8.23;6.15;;;;;;;21.56;nan;101130.91;4982972;28;20054;-86
2021/07/17 09:17:05;;;;;;;8.05;6.72;;;;;;;21.55;nan;101140.03;4994973;28;20316;-85
2021/07/17 09:19:32;;;;;;;7.40;6.03;;;;;;;21.72;nan;101145.78;4986193;28;20030;-87
2021/07/17 09:21:58;;;;;;;9.70;7.68;;;;;;;21.78;nan;101130.66;4994146;28;20031;-88
2021/07/17 09:24:23;;;;;;;9.90;7.15;;;;;;;21.77;nan;101137.09;4977169;28;20531;-88
2021/07/17 09:26:56;;;;;;;9.52;6.55;;;;;;;21.75;nan;101133.78;4984976;28;20497;-87
2021/07/17 09:29:22;;;;;;;8.43;6.68;;;;;;;21.88;nan;101136.44;4993070;28;20068;-87
2021/07/17 09:31:50;;;;;;;8.68;6.85;;;;;;;21.79;nan;101135.84;4987023;28;20095;-87
2021/07/17 09:34:18;;;;;;;10.02;6.40;;;;;;;21.66;nan;101119.72;4986580;28;20663;-88
2021/07/17 09:37:05;;;;;;;10.00;6.50;;;;;;;21.84;nan;101125.25;4988307;28;20385;-87
2021/07/17 09:39:35;;;;;;;9.32;6.03;;;;;;;21.90;nan;101120.88;4964924;28;20039;-87
2021/07/17 09:42:11;;;;;;;7.50;5.83;;;;;;;22.00;nan;101120.44;4971690;28;20420;-88
2021/07/17 09:44:36;;;;;;;9.60;6.47;;;;;;;22.02;nan;101118.34;4971114;28;20050;-87
2021/07/17 09:47:13;;;;;;;9.93;6.15;;;;;;;22.09;nan;101118.34;4981934;28;20772;-88
2021/07/17 09:49:39;;;;;;;9.50;5.80;;;;;;;22.15;nan;101112.94;4966508;28;20049;-88
2021/07/17 09:52:09;;;;;;;9.32;6.20;;;;;;;22.15;nan;101112.94;4991275;28;20046;-87
2021/07/17 09:54:35;;;;;;;7.97;5.73;;;;;;;22.11;nan;101118.94;4978047;28;20065;-87
2021/07/17 09:57:02;;;;;;;8.57;5.47;;;;;;;22.26;nan;101120.38;4990974;28;20027;-87
2021/07/17 09:59:27;;;;;;;7.65;5.15;;;;;;;22.52;nan;101110.47;4981645;28;20126;-88
2021/07/17 10:01:53;;;;;;;9.60;5.50;;;;;;;22.44;nan;101116.94;4959184;28;20082;-88
2021/07/17 10:04:18;;;;;;;8.48;5.72;;;;;;;22.23;nan;101104.63;4981631;28;20453;-87
2021/07/17 10:06:59;;;;;;;7.25;5.32;;;;;;;22.35;nan;101098.56;4960844;28;20035;-87
2021/07/17 10:09:27;;;;;;;6.97;5.07;;;;;;;22.40;nan;101096.84;4992865;28;20026;-87
2021/07/17 10:12:01;;;;;;;9.23;5.85;;;;;;;22.45;nan;101098.91;4994384;28;20039;-88
2021/07/17 10:14:33;;;;;;;8.07;5.80;;;;;;;22.40;nan;101090.66;4974322;28;20068;-88
2021/07/17 10:17:03;;;;;;;9.27;5.97;;;;;;;22.46;nan;101100.56;4984818;28;20120;-88
2021/07/17 10:19:28;;;;;;;22.80;7.60;;;;;;;22.48;nan;101099.31;4981025;28;20038;-87
2021/07/17 10:21:55;;;;;;;11.35;5.88;;;;;;;22.64;nan;101106.06;4975718;28;20038;-87
2021/07/17 10:24:20;;;;;;;8.63;5.57;;;;;;;22.72;nan;101112.25;4966568;28;20107;-88
2021/07/17 10:26:49;;;;;;;8.68;5.72;;;;;;;22.73;nan;101098.53;4965688;28;20058;-87
2021/07/17 10:29:16;;;;;;;7.55;5.20;;;;;;;22.89;nan;101102.56;4974747;28;20113;-86
2021/07/17 10:31:42;;;;;;;6.47;5.28;;;;;;;22.95;nan;101106.25;4982514;28;20265;-88
2021/07/17 10:34:08;;;;;;;8.70;5.72;;;;;;;22.92;nan;101098.59;4998383;28;20458;-88
2021/07/17 10:36:39;;;;;;;9.45;6.00;;;;;;;23.08;nan;101100.78;4998275;28;20042;-88
2021/07/17 10:39:08;;;;;;;6.65;5.53;;;;;;;23.12;nan;101102.00;4974452;28;20042;-88
2021/07/17 10:41:35;;;;;;;9.18;5.55;;;;;;;23.30;nan;101104.72;4995784;28;20066;-87
2021/07/17 10:44:01;;;;;;;6.72;4.68;;;;;;;23.28;nan;101101.41;4983186;28;20041;-87
2021/07/17 10:46:38;;;;;;;8.00;6.03;;;;;;;23.42;nan;101091.31;4974820;28;20034;-87
2021/07/17 10:49:07;;;;;;;7.38;5.55;;;;;;;23.32;nan;101096.41;5000652;28;20023;-88
2021/07/17 10:51:35;;;;;;;7.28;5.38;;;;;;;23.25;nan;101091.06;4982937;28;20108;-86
2021/07/17 10:54:06;;;;;;;9.82;5.68;;;;;;;23.00;nan;101083.00;4983346;28;20034;-86
2021/07/17 10:56:34;;;;;;;;;;;;;;;22.90;nan;101093.41;4985495;28;20035;-86
2021/07/17 10:59:20;;;;;;;9.73;6.00;;;;;;;22.95;nan;101085.47;4990459;28;19906;-88
2021/07/17 11:01:58;;;;;;;9.27;5.45;;;;;;;23.20;nan;101080.13;4961550;28;20041;-88
2021/07/17 11:04:29;;;;;;;7.30;5.18;;;;;;;23.43;nan;101084.88;4986649;28;20042;-87
2021/07/17 11:06:55;;;;;;;6.68;5.32;;;;;;;23.48;nan;101085.03;4987680;28;20424;-84
2021/07/17 11:09:30;;;;;;;6.68;5.05;;;;;;;23.40;nan;101087.19;4972014;28;20039;-84
2021/07/17 11:12:18;;;;;;;8.32;5.60;;;;;;;23.42;nan;101088.63;4978372;28;20050;-84
2021/07/17 11:14:44;;;;;;;8.90;5.65;;;;;;;23.18;nan;101084.09;4978200;28;20035;-85
2021/07/17 11:17:09;;;;;;;9.48;6.00;;;;;;;23.15;nan;101079.16;4987035;28;20035;-87
2021/07/17 11:19:35;;;;;;;8.05;5.40;;;;;;;23.38;nan;101082.00;4998655;28;20385;-87
2021/07/17 11:22:12;;;;;;;9.75;6.10;;;;;;;23.52;nan;101075.41;4998374;28;20023;-84
2021/07/17 11:24:38;;;;;;;8.43;5.70;;;;;;;23.87;nan;101074.03;4985498;28;20089;-84
2021/07/17 11:27:12;;;;;;;6.75;5.10;;;;;;;24.23;nan;101073.16;4975533;28;20089;-84
2021/07/17 11:29:42;;;;;;;6.93;5.25;;;;;;;24.45;nan;101080.75;4985678;28;20042;-86